Other Surface Observations
Issued by NWS Great Falls, MT

Home | Current Version | Previous Version | Text Only | Print | Product List | Glossary On
Versions: 1 2 3 4 5 6 7 8 9 10 11 12 13 14 15 16 17 18 19 20 21 22 23 24 25 26 27 28 29 30 31 32 33 34 35 36 37 38 39 40 41 42 43 44 45 46 47 48 49 50
000
SXUS55 KTFX 210802
OSOTFX

AREA AWOS OBSERVATIONS
NATIONAL WEATHER SERVICE GREAT FALLS MT
0104 AM MDT Fri Sep 21 2018

METAR K97M 210555Z AUTO 31010KT 40SM 04/02 A3011 RMK A01 T00380016
METAR K9S2 210555Z AUTO 04000KT 40SM 02/M01 A3017 RMK A01 T00161011
METAR K9S5 210655Z AUTO 13000KT 25SM 02/01 A3014 RMK A01 T00220005
METAR KRPX 210555Z AUTO 10002KT 40SM 04/02 A3010 RMK A01 T00440022
METAR KTHM 210555Z AUTO 27000KT 40SM 09/03 A3014 RMK A01 T00940027



USA.gov is the U.S. government's official web portal to all federal, state and local government web resources and services.